Temp: 14.2°C   Baro: 1008.3mb
  Wind: 6.0mph   Dir: W (279°)
  Rain: 6.4mm (0.0mm/hr)
  Sun: 385W/m2  Humidity: 90%

Historic data

Bath Spa Weather Station Historical Data
Daily Summary for March 16, 2023 Units:  Both    English   Metric
Daily Weekly Monthly Yearly Custom
  High: Low: Average:
Temperature: 52.6 °F /  11.4 °C 48.7 °F /  9.3 °C 50.3 °F /  10.2 °C
Dew Point: 49.5 °F /  9.7 °C 46 °F /  7.8 °C 47.5 °F /  8.6 °C
Humidity: 94% 81% 90%
Wind Speed: 9.8mph /  15.8km/h - 4.9mph /  7.9km/h
Wind Gust: 23mph /  37km/h - -
Wind- - SSW
Pressure: 29.80 in /  1009 hPa 29.59 in /  1001.9 hPa -
Precipitation: 0.02 in /  0.51 mm    
Historical Graphs
 
 
Tabular Data for March 16, 2023
Time Temperature Dew Point Pressure Wind Wind Speed Wind Gust Humidity Rainfall Rate (Hourly) solar
00:09 48.9 °F /  9.4 °C 47.3 °F /  8.5 °C 29.80in /  1009hPa SSW 4mph /  6.4km/h 10mph /  16.1km/h 94% 0.00in /  0mm 0 W/m2
00:14 48.9 °F /  9.4 °C 47.3 °F /  8.5 °C 29.79in /  1008.7hPa South 6.2mph /  10km/h 13mph /  20.9km/h 94% 0.00in /  0mm 0 W/m2
00:19 48.9 °F /  9.4 °C 47.3 °F /  8.5 °C 29.79in /  1008.7hPa South 4.7mph /  7.6km/h 11mph /  17.7km/h 94% 0.00in /  0mm 0 W/m2
00:24 48.9 °F /  9.4 °C 47.3 °F /  8.5 °C 29.79in /  1008.7hPa South 3.9mph /  6.3km/h 11mph /  17.7km/h 94% 0.00in /  0mm 0 W/m2
00:29 49 °F /  9.4 °C 47.4 °F /  8.6 °C 29.79in /  1008.7hPa South 6.1mph /  9.8km/h 11mph /  17.7km/h 94% 0.00in /  0mm 0 W/m2
00:34 49.3 °F /  9.6 °C 47.7 °F /  8.7 °C 29.78in /  1008.4hPa South 5.8mph /  9.3km/h 14mph /  22.5km/h 94% 0.00in /  0mm 0 W/m2
00:39 49.3 °F /  9.6 °C 47.7 °F /  8.7 °C 29.78in /  1008.4hPa SSW 6.4mph /  10.3km/h 14mph /  22.5km/h 94% 0.00in /  0mm 0 W/m2
00:44 49.3 °F /  9.6 °C 47.7 °F /  8.7 °C 29.78in /  1008.4hPa SSW 5.5mph /  8.9km/h 14mph /  22.5km/h 94% 0.00in /  0mm 0 W/m2
00:49 49.3 °F /  9.6 °C 47.7 °F /  8.7 °C 29.78in /  1008.4hPa SSW 5.7mph /  9.2km/h 9mph /  14.5km/h 94% 0.00in /  0mm 0 W/m2
00:54 49.3 °F /  9.6 °C 47.7 °F /  8.7 °C 29.78in /  1008.4hPa SSW 4.7mph /  7.6km/h 11mph /  17.7km/h 94% 0.00in /  0mm 0 W/m2
00:59 49.3 °F /  9.6 °C 47.7 °F /  8.7 °C 29.78in /  1008.4hPa South 4.1mph /  6.6km/h 9mph /  14.5km/h 94% 0.00in /  0mm 0 W/m2
01:04 49.2 °F /  9.6 °C 47.6 °F /  8.7 °C 29.77in /  1008hPa South 4.4mph /  7.1km/h 11mph /  17.7km/h 94% 0.00in /  0mm 0 W/m2
01:09 49.2 °F /  9.6 °C 47.6 °F /  8.7 °C 29.77in /  1008hPa South 4.8mph /  7.7km/h 11mph /  17.7km/h 94% 0.00in /  0mm 0 W/m2
01:14 49.1 °F /  9.5 °C 47.5 °F /  8.6 °C 29.77in /  1008hPa South 3.3mph /  5.3km/h 8mph /  12.9km/h 94% 0.00in /  0mm 0 W/m2
01:19 48.9 °F /  9.4 °C 47.3 °F /  8.5 °C 29.77in /  1008hPa SSW 4.3mph /  6.9km/h 8mph /  12.9km/h 94% 0.00in /  0mm 0 W/m2
01:24 48.9 °F /  9.4 °C 47.2 °F /  8.4 °C 29.77in /  1008hPa South 5.7mph /  9.2km/h 13mph /  20.9km/h 93.8% 0.00in /  0mm 0 W/m2
01:29 48.9 °F /  9.4 °C 47.3 °F /  8.5 °C 29.77in /  1008hPa SSW 4.8mph /  7.7km/h 13mph /  20.9km/h 94% 0.00in /  0mm 0 W/m2
01:34 48.9 °F /  9.4 °C 47.1 °F /  8.4 °C 29.77in /  1008hPa South 5.8mph /  9.3km/h 12mph /  19.3km/h 93.6% 0.00in /  0mm 0 W/m2
01:39 49.1 °F /  9.5 °C 47.5 °F /  8.6 °C 29.76in /  1007.7hPa South 4.1mph /  6.6km/h 11mph /  17.7km/h 94% 0.00in /  0mm 0 W/m2
01:44 49.1 °F /  9.5 °C 47.3 °F /  8.5 °C 29.76in /  1007.7hPa SSW 4.2mph /  6.8km/h 10mph /  16.1km/h 93.6% 0.00in /  0mm 0 W/m2
01:49 49.3 °F /  9.6 °C 47.3 °F /  8.5 °C 29.76in /  1007.7hPa South 4.1mph /  6.6km/h 11mph /  17.7km/h 93% 0.00in /  0mm 0 W/m2
01:54 49.3 °F /  9.6 °C 47.3 °F /  8.5 °C 29.76in /  1007.7hPa SSW 4.5mph /  7.2km/h 9mph /  14.5km/h 93% 0.00in /  0mm 0 W/m2
01:59 49.3 °F /  9.6 °C 47.3 °F /  8.5 °C 29.76in /  1007.7hPa SSW 2.2mph /  3.5km/h 10mph /  16.1km/h 93% 0.00in /  0mm 0 W/m2
02:04 49.3 °F /  9.6 °C 47.3 °F /  8.5 °C 29.76in /  1007.7hPa SW 4.5mph /  7.2km/h 9mph /  14.5km/h 93% 0.00in /  0mm 0 W/m2
02:09 49.3 °F /  9.6 °C 47.3 °F /  8.5 °C 29.76in /  1007.7hPa SSW 3mph /  4.8km/h 8mph /  12.9km/h 93% 0.00in /  0mm 0 W/m2
02:14 49.4 °F /  9.7 °C 47.4 °F /  8.6 °C 29.76in /  1007.7hPa SW 4.8mph /  7.7km/h 12mph /  19.3km/h 93% 0.00in /  0mm 0 W/m2
02:19 49.5 °F /  9.7 °C 47.5 °F /  8.6 °C 29.75in /  1007.3hPa SSW 2.4mph /  3.9km/h 8mph /  12.9km/h 93% 0.00in /  0mm 0 W/m2
02:24 49.4 °F /  9.7 °C 47.4 °F /  8.6 °C 29.75in /  1007.3hPa SSW 5mph /  8km/h 13mph /  20.9km/h 93% 0.00in /  0mm 0 W/m2
02:29 49.5 °F /  9.7 °C 47.5 °F /  8.6 °C 29.75in /  1007.3hPa SW 3.6mph /  5.8km/h 10mph /  16.1km/h 93% 0.00in /  0mm 0 W/m2
02:34 49.5 °F /  9.7 °C 47.5 °F /  8.6 °C 29.75in /  1007.3hPa SSW 4mph /  6.4km/h 9mph /  14.5km/h 93% 0.00in /  0mm 0 W/m2
02:39 49.5 °F /  9.7 °C 47.5 °F /  8.6 °C 29.75in /  1007.3hPa SW 3.3mph /  5.3km/h 7mph /  11.3km/h 93% 0.00in /  0mm 0 W/m2
02:44 49.5 °F /  9.7 °C 47.4 °F /  8.6 °C 29.75in /  1007.3hPa South 1.3mph /  2.1km/h 6mph /  9.7km/h 92.6% 0.00in /  0mm 0 W/m2
02:49 49.5 °F /  9.7 °C 47.3 °F /  8.5 °C 29.75in /  1007.3hPa South 2.9mph /  4.7km/h 8mph /  12.9km/h 92% 0.00in /  0mm 0 W/m2
02:54 49.5 °F /  9.7 °C 47.3 °F /  8.5 °C 29.75in /  1007.3hPa SW 4.4mph /  7.1km/h 8mph /  12.9km/h 92% 0.00in /  0mm 0 W/m2
02:59 49.5 °F /  9.7 °C 47.3 °F /  8.5 °C 29.74in /  1007hPa SW 5.6mph /  9km/h 11mph /  17.7km/h 92% 0.00in /  0mm 0 W/m2
03:04 49.5 °F /  9.7 °C 47.3 °F /  8.5 °C 29.74in /  1007hPa SSW 5.9mph /  9.5km/h 11mph /  17.7km/h 92% 0.00in /  0mm 0 W/m2
03:09 49.5 °F /  9.7 °C 47.3 °F /  8.5 °C 29.74in /  1007hPa SSW 6mph /  9.7km/h 11mph /  17.7km/h 92% 0.00in /  0mm 0 W/m2
03:13 49.5 °F /  9.7 °C 47.3 °F /  8.5 °C 29.74in /  1007hPa SW 6.2mph /  10km/h 13mph /  20.9km/h 92% 0.00in /  0mm 0 W/m2
03:19 49.5 °F /  9.7 °C 47.3 °F /  8.5 °C 29.74in /  1007hPa SSW 6mph /  9.7km/h 13mph /  20.9km/h 92% 0.00in /  0mm 0 W/m2
03:24 49.5 °F /  9.7 °C 47.3 °F /  8.5 °C 29.74in /  1007hPa South 5mph /  8km/h 11mph /  17.7km/h 92% 0.00in /  0mm 0 W/m2
03:29 49.5 °F /  9.7 °C 47.3 °F /  8.5 °C 29.73in /  1006.7hPa SSW 3.7mph /  6km/h 7mph /  11.3km/h 92% 0.00in /  0mm 0 W/m2
03:34 49.3 °F /  9.6 °C 47.1 °F /  8.4 °C 29.73in /  1006.7hPa South 3.8mph /  6.1km/h 10mph /  16.1km/h 92% 0.00in /  0mm 0 W/m2
03:39 49.3 °F /  9.6 °C 47.1 °F /  8.4 °C 29.73in /  1006.7hPa SSW 7.2mph /  11.6km/h 15mph /  24.1km/h 92% 0.00in /  0mm 0 W/m2
03:44 49.3 °F /  9.6 °C 47.1 °F /  8.4 °C 29.73in /  1006.7hPa SW 4.6mph /  7.4km/h 15mph /  24.1km/h 92% 0.00in /  0mm 0 W/m2
03:49 49.3 °F /  9.6 °C 47.1 °F /  8.4 °C 29.73in /  1006.7hPa South 4.1mph /  6.6km/h 13mph /  20.9km/h 92% 0.00in /  0mm 0 W/m2
03:54 49.3 °F /  9.6 °C 47.1 °F /  8.4 °C 29.73in /  1006.7hPa SSW 7.3mph /  11.7km/h 13mph /  20.9km/h 92% 0.00in /  0mm 0 W/m2
03:59 49.3 °F /  9.6 °C 47.1 °F /  8.4 °C 29.72in /  1006.3hPa South 3.5mph /  5.6km/h 13mph /  20.9km/h 92% 0.00in /  0mm 0 W/m2
04:04 49.3 °F /  9.6 °C 47.1 °F /  8.4 °C 29.72in /  1006.3hPa SSW 7mph /  11.3km/h 14mph /  22.5km/h 92% 0.00in /  0mm 0 W/m2
04:09 49.5 °F /  9.7 °C 47.3 °F /  8.5 °C 29.72in /  1006.3hPa SSW 5.6mph /  9km/h 12mph /  19.3km/h 92% 0.00in /  0mm 0 W/m2
04:14 49.5 °F /  9.7 °C 47.3 °F /  8.5 °C 29.72in /  1006.3hPa SSW 5.6mph /  9km/h 12mph /  19.3km/h 92% 0.00in /  0mm 0 W/m2
04:19 49.5 °F /  9.7 °C 47.3 °F /  8.5 °C 29.72in /  1006.3hPa South 7.2mph /  11.6km/h 12mph /  19.3km/h 92% 0.00in /  0mm 0 W/m2
04:24 49.4 °F /  9.7 °C 47.2 °F /  8.4 °C 29.72in /  1006.3hPa SSW 3.9mph /  6.3km/h 10mph /  16.1km/h 92% 0.00in /  0mm 0 W/m2
04:29 49.3 °F /  9.6 °C 47.1 °F /  8.4 °C 29.72in /  1006.3hPa SSW 7.1mph /  11.4km/h 12mph /  19.3km/h 92% 0.00in /  0mm 0 W/m2
04:34 49.3 °F /  9.6 °C 47.1 °F /  8.4 °C 29.72in /  1006.3hPa SSW 5.9mph /  9.5km/h 12mph /  19.3km/h 92% 0.00in /  0mm 0 W/m2
04:38 49.3 °F /  9.6 °C 47.1 °F /  8.4 °C 29.72in /  1006.3hPa SSW 7.4mph /  11.9km/h 13mph /  20.9km/h 92% 0.00in /  0mm 0 W/m2
04:44 49.3 °F /  9.6 °C 47.1 °F /  8.4 °C 29.72in /  1006.3hPa SW 9.8mph /  15.8km/h 15mph /  24.1km/h 92% 0.00in /  0mm 0 W/m2
04:49 49.4 °F /  9.7 °C 47.2 °F /  8.4 °C 29.72in /  1006.3hPa SSW 7.4mph /  11.9km/h 19mph /  30.6km/h 92% 0.00in /  0mm 0 W/m2
04:54 49.4 °F /  9.7 °C 46.9 °F /  8.3 °C 29.72in /  1006.3hPa SSW 7.9mph /  12.7km/h 17mph /  27.4km/h 91.2% 0.00in /  0mm 0 W/m2
04:59 49.5 °F /  9.7 °C 46.9 °F /  8.3 °C 29.71in /  1006hPa SW 8.4mph /  13.5km/h 16mph /  25.7km/h 91% 0.00in /  0mm 0 W/m2
05:04 49.4 °F /  9.7 °C 46.9 °F /  8.3 °C 29.72in /  1006.3hPa SSW 5.3mph /  8.5km/h 18mph /  29km/h 91% 0.00in /  0mm 0 W/m2
05:09 49.3 °F /  9.6 °C 46.8 °F /  8.2 °C 29.71in /  1006hPa SSW 9.4mph /  15.1km/h 15mph /  24.1km/h 91% 0.00in /  0mm 0 W/m2
05:14 49.3 °F /  9.6 °C 46.8 °F /  8.2 °C 29.71in /  1006hPa South 7mph /  11.3km/h 17mph /  27.4km/h 91% 0.00in /  0mm 0 W/m2
05:19 49.3 °F /  9.6 °C 46.8 °F /  8.2 °C 29.71in /  1006hPa SSW 8.3mph /  13.4km/h 18mph /  29km/h 91% 0.00in /  0mm 0 W/m2
05:24 49.2 °F /  9.6 °C 46.7 °F /  8.2 °C 29.71in /  1006hPa SSW 7.3mph /  11.7km/h 18mph /  29km/h 91% 0.00in /  0mm 0 W/m2
05:29 49 °F /  9.4 °C 46.5 °F /  8.1 °C 29.71in /  1006hPa SSW 9.6mph /  15.4km/h 17mph /  27.4km/h 91% 0.00in /  0mm 0 W/m2
05:34 48.9 °F /  9.4 °C 46.4 °F /  8 °C 29.71in /  1006hPa SSW 7.1mph /  11.4km/h 17mph /  27.4km/h 91% 0.00in /  0mm 0 W/m2
05:39 48.9 °F /  9.4 °C 46.4 °F /  8 °C 29.72in /  1006.3hPa SSW 7.6mph /  12.2km/h 15mph /  24.1km/h 91% 0.00in /  0mm 0 W/m2
05:44 48.9 °F /  9.4 °C 46.5 °F /  8.1 °C 29.72in /  1006.3hPa SSW 6.6mph /  10.6km/h 15mph /  24.1km/h 91.2% 0.00in /  0mm 0 W/m2
05:49 48.9 °F /  9.4 °C 46.8 °F /  8.2 °C 29.72in /  1006.3hPa SSW 7.8mph /  12.6km/h 15mph /  24.1km/h 92% 0.00in /  0mm 0 W/m2
05:54 48.9 °F /  9.4 °C 46.7 °F /  8.2 °C 29.71in /  1006hPa SW 6.8mph /  10.9km/h 14mph /  22.5km/h 91.8% 0.00in /  0mm 0 W/m2
05:59 48.9 °F /  9.4 °C 46.6 °F /  8.1 °C 29.71in /  1006hPa South 5.1mph /  8.2km/h 16mph /  25.7km/h 91.4% 0.00in /  0mm 0 W/m2
06:04 48.8 °F /  9.3 °C 46.3 °F /  7.9 °C 29.70in /  1005.6hPa SSW 4mph /  6.4km/h 11mph /  17.7km/h 91% 0.00in /  0mm 0 W/m2
06:09 48.7 °F /  9.3 °C 46.2 °F /  7.9 °C 29.70in /  1005.6hPa SSW 4.6mph /  7.4km/h 11mph /  17.7km/h 91% 0.00in /  0mm 0 W/m2
06:14 48.7 °F /  9.3 °C 46.2 °F /  7.9 °C 29.70in /  1005.6hPa SW 6.2mph /  10km/h 12mph /  19.3km/h 91% 0.00in /  0mm 0 W/m2
06:19 48.7 °F /  9.3 °C 46.2 °F /  7.9 °C 29.70in /  1005.6hPa South 5.1mph /  8.2km/h 11mph /  17.7km/h 91% 0.00in /  0mm 0 W/m2
06:24 48.7 °F /  9.3 °C 46.2 °F /  7.9 °C 29.70in /  1005.6hPa SSW 5.9mph /  9.5km/h 14mph /  22.5km/h 91% 0.00in /  0mm 0 W/m2
06:29 48.7 °F /  9.3 °C 46.2 °F /  7.9 °C 29.70in /  1005.6hPa South 5.3mph /  8.5km/h 14mph /  22.5km/h 91% 0.00in /  0mm 0 W/m2
06:34 48.7 °F /  9.3 °C 46.2 °F /  7.9 °C 29.70in /  1005.6hPa South 5.9mph /  9.5km/h 12mph /  19.3km/h 91% 0.00in /  0mm 5 W/m2
06:39 48.7 °F /  9.3 °C 46.2 °F /  7.9 °C 29.70in /  1005.6hPa SSW 4.1mph /  6.6km/h 12mph /  19.3km/h 91% 0.00in /  0mm 7 W/m2
06:44 48.8 °F /  9.3 °C 46.3 °F /  7.9 °C 29.70in /  1005.6hPa South 7.2mph /  11.6km/h 16mph /  25.7km/h 91% 0.00in /  0mm 11 W/m2
06:49 48.9 °F /  9.4 °C 46.4 °F /  8 °C 29.70in /  1005.6hPa SSW 7.1mph /  11.4km/h 13mph /  20.9km/h 91% 0.00in /  0mm 14 W/m2
06:54 48.9 °F /  9.4 °C 46.4 °F /  8 °C 29.70in /  1005.6hPa South 6.1mph /  9.8km/h 12mph /  19.3km/h 91% 0.00in /  0mm 14 W/m2
06:59 48.9 °F /  9.4 °C 46.4 °F /  8 °C 29.70in /  1005.6hPa South 5.8mph /  9.3km/h 12mph /  19.3km/h 91% 0.00in /  0mm 12 W/m2
07:04 48.9 °F /  9.4 °C 46.4 °F /  8 °C 29.70in /  1005.6hPa SSW 5mph /  8km/h 10mph /  16.1km/h 91% 0.00in /  0mm 12 W/m2
07:09 49 °F /  9.4 °C 46.5 °F /  8.1 °C 29.70in /  1005.6hPa SSW 5.5mph /  8.9km/h 11mph /  17.7km/h 91% 0.00in /  0mm 12 W/m2
07:14 48.9 °F /  9.4 °C 46.4 °F /  8 °C 29.70in /  1005.6hPa SSW 5.2mph /  8.4km/h 9mph /  14.5km/h 90.8% 0.00in /  0mm 12 W/m2
07:19 48.9 °F /  9.4 °C 46.2 °F /  7.9 °C 29.71in /  1006hPa South 3.3mph /  5.3km/h 14mph /  22.5km/h 90.4% 0.00in /  0mm 18 W/m2
07:24 48.9 °F /  9.4 °C 46.2 °F /  7.9 °C 29.71in /  1006hPa SSW 5.5mph /  8.9km/h 9mph /  14.5km/h 90.4% 0.00in /  0mm 18 W/m2
07:29 48.9 °F /  9.4 °C 46 °F /  7.8 °C 29.71in /  1006hPa SW 6mph /  9.7km/h 11mph /  17.7km/h 90% 0.00in /  0mm 21 W/m2
07:34 49.1 °F /  9.5 °C 46.2 °F /  7.9 °C 29.71in /  1006hPa SW 5.9mph /  9.5km/h 7mph /  11.3km/h 90% 0.00in /  0mm 21 W/m2
07:39 49.1 °F /  9.5 °C 46.2 °F /  7.9 °C 29.71in /  1006hPa SSW 4.1mph /  6.6km/h 16mph /  25.7km/h 90% 0.00in /  0mm 28 W/m2
07:44 49.1 °F /  9.5 °C 46.2 °F /  7.9 °C 29.71in /  1006hPa SSW 5.5mph /  8.9km/h 12mph /  19.3km/h 90% 0.00in /  0mm 28 W/m2
07:49 49.1 °F /  9.5 °C 46.2 °F /  7.9 °C 29.71in /  1006hPa SSW 5.5mph /  8.9km/h 10mph /  16.1km/h 90% 0.00in /  0mm 32 W/m2
07:54 49.3 °F /  9.6 °C 46.4 °F /  8 °C 29.71in /  1006hPa SSW 7mph /  11.3km/h 14mph /  22.5km/h 90% 0.00in /  0mm 37 W/m2
07:59 49.3 °F /  9.6 °C 46.4 °F /  8 °C 29.71in /  1006hPa SSW 6.4mph /  10.3km/h 14mph /  22.5km/h 90% 0.00in /  0mm 37 W/m2
08:04 49.5 °F /  9.7 °C 46.6 °F /  8.1 °C 29.70in /  1005.6hPa SSW 6.5mph /  10.5km/h 14mph /  22.5km/h 90% 0.00in /  0mm 33 W/m2
08:09 49.5 °F /  9.7 °C 46.5 °F /  8.1 °C 29.70in /  1005.6hPa SSW 5.3mph /  8.5km/h 11mph /  17.7km/h 89.4% 0.00in /  0mm 47 W/m2
08:14 49.5 °F /  9.7 °C 46.4 °F /  8 °C 29.70in /  1005.6hPa SSW 7.8mph /  12.6km/h 14mph /  22.5km/h 89% 0.00in /  0mm 56 W/m2
08:19 49.5 °F /  9.7 °C 46.4 °F /  8 °C 29.70in /  1005.6hPa South 5mph /  8km/h 14mph /  22.5km/h 89% 0.00in /  0mm 62 W/m2
08:24 49.5 °F /  9.7 °C 46.4 °F /  8 °C 29.71in /  1006hPa South 4.7mph /  7.6km/h 11mph /  17.7km/h 89% 0.00in /  0mm 69 W/m2
08:29 49.5 °F /  9.7 °C 46.5 °F /  8.1 °C 29.70in /  1005.6hPa WSW 5.7mph /  9.2km/h 10mph /  16.1km/h 89% 0.00in /  0mm 77 W/m2
08:34 49.6 °F /  9.8 °C 46.6 °F /  8.1 °C 29.71in /  1006hPa South 5.6mph /  9km/h 13mph /  20.9km/h 89% 0.00in /  0mm 90 W/m2
08:39 49.6 °F /  9.8 °C 46.4 °F /  8 °C 29.71in /  1006hPa South 4.4mph /  7.1km/h 11mph /  17.7km/h 88.6% 0.00in /  0mm 76 W/m2
08:44 49.7 °F /  9.8 °C 46.3 °F /  7.9 °C 29.71in /  1006hPa SSW 6.2mph /  10km/h 12mph /  19.3km/h 88% 0.00in /  0mm 67 W/m2
08:49 49.8 °F /  9.9 °C 46.4 °F /  8 °C 29.71in /  1006hPa South 5.6mph /  9km/h 12mph /  19.3km/h 88% 0.00in /  0mm 65 W/m2
08:53 49.8 °F /  9.9 °C 46.4 °F /  8 °C 29.71in /  1006hPa South 4mph /  6.4km/h 12mph /  19.3km/h 88% 0.00in /  0mm 56 W/m2
08:59 49.8 °F /  9.9 °C 46.4 °F /  8 °C 29.71in /  1006hPa SSW 5.8mph /  9.3km/h 11mph /  17.7km/h 88% 0.00in /  0mm 47 W/m2
09:04 49.8 °F /  9.9 °C 46 °F /  7.8 °C 29.71in /  1006hPa SSE 3.7mph /  6km/h 9mph /  14.5km/h 87% 0.00in /  0mm 37 W/m2
09:09 49.8 °F /  9.9 °C 46 °F /  7.8 °C 29.70in /  1005.6hPa South 4.3mph /  6.9km/h 8mph /  12.9km/h 87% 0.00in /  0mm 40 W/m2
09:14 49.8 °F /  9.9 °C 46 °F /  7.8 °C 29.70in /  1005.6hPa South 3.3mph /  5.3km/h 9mph /  14.5km/h 87% 0.00in /  0mm 21 W/m2
09:19 49.8 °F /  9.9 °C 46 °F /  7.8 °C 29.70in /  1005.6hPa South 2.4mph /  3.9km/h 5mph /  8km/h 87% 0.00in /  0mm 35 W/m2
09:24 49.8 °F /  9.9 °C 46 °F /  7.8 °C 29.70in /  1005.6hPa South 2.9mph /  4.7km/h 11mph /  17.7km/h 87% 0.00in /  0mm 58 W/m2
09:29 49.8 °F /  9.9 °C 46 °F /  7.8 °C 29.70in /  1005.6hPa SSW 3.9mph /  6.3km/h 12mph /  19.3km/h 86.6% 0.00in /  0mm 54 W/m2
09:34 50.1 °F /  10.1 °C 46.1 °F /  7.8 °C 29.70in /  1005.6hPa SSE 2.9mph /  4.7km/h 7mph /  11.3km/h 86% 0.00in /  0mm 58 W/m2
09:39 50.2 °F /  10.1 °C 46.2 °F /  7.9 °C 29.70in /  1005.6hPa SSW 6.4mph /  10.3km/h 12mph /  19.3km/h 86% 0.00in /  0mm 86 W/m2
09:44 50.4 °F /  10.2 °C 46.4 °F /  8 °C 29.69in /  1005.3hPa SSW 2.8mph /  4.5km/h 7mph /  11.3km/h 86% 0.00in /  0mm 97 W/m2
09:49 50.5 °F /  10.3 °C 46.5 °F /  8.1 °C 29.69in /  1005.3hPa SSE 1mph /  1.6km/h 6mph /  9.7km/h 86% 0.00in /  0mm 109 W/m2
09:54 50.6 °F /  10.3 °C 46.7 °F /  8.2 °C 29.69in /  1005.3hPa SE 2.2mph /  3.5km/h 6mph /  9.7km/h 86% 0.00in /  0mm 114 W/m2
09:59 51.1 °F /  10.6 °C 47.1 °F /  8.4 °C 29.68in /  1005hPa ESE 1.4mph /  2.3km/h 5mph /  8km/h 86% 0.00in /  0mm 160 W/m2
10:04 51.2 °F /  10.7 °C 47.2 °F /  8.4 °C 29.68in /  1005hPa SE 1.7mph /  2.7km/h 5mph /  8km/h 85.8% 0.00in /  0mm 178 W/m2
10:09 51.1 °F /  10.6 °C 46.8 °F /  8.2 °C 29.69in /  1005.3hPa SSE 2.6mph /  4.2km/h 8mph /  12.9km/h 85% 0.00in /  0mm 229 W/m2
10:14 51.3 °F /  10.7 °C 47 °F /  8.3 °C 29.68in /  1005hPa SSE 3.6mph /  5.8km/h 12mph /  19.3km/h 85.2% 0.00in /  0mm 248 W/m2
10:19 51.4 °F /  10.8 °C 47.1 °F /  8.4 °C 29.69in /  1005.3hPa South 6.2mph /  10km/h 12mph /  19.3km/h 85% 0.00in /  0mm 218 W/m2
10:24 51.8 °F /  11 °C 47.3 °F /  8.5 °C 29.68in /  1005hPa South 7.4mph /  11.9km/h 16mph /  25.7km/h 84.6% 0.00in /  0mm 294 W/m2
10:29 52 °F /  11.1 °C 47.3 °F /  8.5 °C 29.68in /  1005hPa South 9.8mph /  15.8km/h 15mph /  24.1km/h 84% 0.00in /  0mm 302 W/m2
10:34 52.2 °F /  11.2 °C 47.5 °F /  8.6 °C 29.68in /  1005hPa South 5.7mph /  9.2km/h 13mph /  20.9km/h 84% 0.00in /  0mm 207 W/m2
10:39 52.2 °F /  11.2 °C 47.4 °F /  8.6 °C 29.68in /  1005hPa South 9.6mph /  15.4km/h 23mph /  37km/h 83.8% 0.00in /  0mm 172 W/m2
10:44 52 °F /  11.1 °C 46.9 °F /  8.3 °C 29.68in /  1005hPa South 5.9mph /  9.5km/h 23mph /  37km/h 83% 0.00in /  0mm 174 W/m2
10:54 52 °F /  11.1 °C 46.9 °F /  8.3 °C 29.68in /  1005hPa SSW 6.1mph /  9.8km/h 17mph /  27.4km/h 83% 0.00in /  0mm 144 W/m2
10:59 52 °F /  11.1 °C 46.9 °F /  8.3 °C 29.68in /  1005hPa South 7.6mph /  12.2km/h 17mph /  27.4km/h 83% 0.00in /  0mm 128 W/m2
11:04 51.9 °F /  11.1 °C 46.9 °F /  8.3 °C 29.68in /  1005hPa SSW 8.5mph /  13.7km/h 16mph /  25.7km/h 83% 0.00in /  0mm 127 W/m2
11:09 52 °F /  11.1 °C 46.9 °F /  8.3 °C 29.68in /  1005hPa South 6.6mph /  10.6km/h 14mph /  22.5km/h 83% 0.00in /  0mm 132 W/m2
11:14 52 °F /  11.1 °C 46.9 °F /  8.3 °C 29.68in /  1005hPa SSW 7.6mph /  12.2km/h 17mph /  27.4km/h 83% 0.00in /  0mm 114 W/m2
11:19 52 °F /  11.1 °C 46.9 °F /  8.3 °C 29.67in /  1004.6hPa South 3.6mph /  5.8km/h 13mph /  20.9km/h 83% 0.00in /  0mm 100 W/m2
11:24 52.2 °F /  11.2 °C 47.1 °F /  8.4 °C 29.67in /  1004.6hPa South 5.4mph /  8.7km/h 13mph /  20.9km/h 83% 0.00in /  0mm 105 W/m2
11:29 52.2 °F /  11.2 °C 47 °F /  8.3 °C 29.67in /  1004.6hPa South 9.4mph /  15.1km/h 18mph /  29km/h 82.6% 0.00in /  0mm 97 W/m2
11:34 52.2 °F /  11.2 °C 46.8 °F /  8.2 °C 29.67in /  1004.6hPa South 5mph /  8km/h 12mph /  19.3km/h 82% 0.00in /  0mm 105 W/m2
11:39 52.2 °F /  11.2 °C 46.8 °F /  8.2 °C 29.67in /  1004.6hPa SSE 7mph /  11.3km/h 14mph /  22.5km/h 82% 0.00in /  0mm 98 W/m2
11:44 52.3 °F /  11.3 °C 46.9 °F /  8.3 °C 29.67in /  1004.6hPa South 6.4mph /  10.3km/h 14mph /  22.5km/h 82% 0.00in /  0mm 158 W/m2
11:49 52.3 °F /  11.3 °C 46.9 °F /  8.3 °C 29.67in /  1004.6hPa SSE 8.8mph /  14.2km/h 19mph /  30.6km/h 82% 0.00in /  0mm 171 W/m2
11:54 52.5 °F /  11.4 °C 47.1 °F /  8.4 °C 29.67in /  1004.6hPa South 5.8mph /  9.3km/h 16mph /  25.7km/h 82% 0.00in /  0mm 155 W/m2
11:59 52.6 °F /  11.4 °C 47.1 °F /  8.4 °C 29.67in /  1004.6hPa South 8.2mph /  13.2km/h 16mph /  25.7km/h 81.4% 0.00in /  0mm 102 W/m2
12:04 52.5 °F /  11.4 °C 46.9 °F /  8.3 °C 29.67in /  1004.6hPa South 4.7mph /  7.6km/h 16mph /  25.7km/h 81% 0.00in /  0mm 58 W/m2
12:09 52.4 °F /  11.3 °C 46.8 °F /  8.2 °C 29.67in /  1004.6hPa SSE 9.4mph /  15.1km/h 15mph /  24.1km/h 81% 0.00in /  0mm 46 W/m2
12:14 52.3 °F /  11.3 °C 46.8 °F /  8.2 °C 29.66in /  1004.3hPa South 5.4mph /  8.7km/h 15mph /  24.1km/h 81% 0.00in /  0mm 49 W/m2
12:19 52.2 °F /  11.2 °C 46.6 °F /  8.1 °C 29.66in /  1004.3hPa SSE 5.6mph /  9km/h 11mph /  17.7km/h 81.2% 0.00in /  0mm 58 W/m2
12:24 52.2 °F /  11.2 °C 46.8 °F /  8.2 °C 29.66in /  1004.3hPa South 4mph /  6.4km/h 8mph /  12.9km/h 82% 0.00in /  0mm 44 W/m2
12:29 52 °F /  11.1 °C 46.6 °F /  8.1 °C 29.66in /  1004.3hPa SSE 3.6mph /  5.8km/h 7mph /  11.3km/h 82% 0.00in /  0mm 42 W/m2
12:34 52 °F /  11.1 °C 46.8 °F /  8.2 °C 29.66in /  1004.3hPa South 4.2mph /  6.8km/h 9mph /  14.5km/h 82.8% 0.00in /  0mm 42 W/m2
12:39 51.9 °F /  11.1 °C 46.8 °F /  8.2 °C 29.66in /  1004.3hPa SSE 7.4mph /  11.9km/h 13mph /  20.9km/h 83% 0.00in /  0mm 47 W/m2
12:44 51.9 °F /  11.1 °C 46.9 °F /  8.3 °C 29.66in /  1004.3hPa SSE 5.6mph /  9km/h 12mph /  19.3km/h 83% 0.00in /  0mm 51 W/m2
12:49 51.9 °F /  11.1 °C 46.8 °F /  8.2 °C 29.66in /  1004.3hPa South 6.7mph /  10.8km/h 12mph /  19.3km/h 83% 0.00in /  0mm 62 W/m2
12:54 51.9 °F /  11.1 °C 46.8 °F /  8.2 °C 29.65in /  1003.9hPa SSE 6mph /  9.7km/h 12mph /  19.3km/h 83% 0.00in /  0mm 88 W/m2
12:59 51.9 °F /  11.1 °C 46.9 °F /  8.3 °C 29.65in /  1003.9hPa South 7.6mph /  12.2km/h 14mph /  22.5km/h 83% 0.00in /  0mm 109 W/m2
13:04 52 °F /  11.1 °C 46.9 °F /  8.3 °C 29.65in /  1003.9hPa South 4mph /  6.4km/h 9mph /  14.5km/h 83% 0.00in /  0mm 111 W/m2
13:09 52 °F /  11.1 °C 46.9 °F /  8.3 °C 29.65in /  1003.9hPa South 5.2mph /  8.4km/h 8mph /  12.9km/h 83% 0.00in /  0mm 76 W/m2
13:14 52 °F /  11.1 °C 46.9 °F /  8.3 °C 29.64in /  1003.6hPa SSE 4.7mph /  7.6km/h 11mph /  17.7km/h 83% 0.00in /  0mm 65 W/m2
13:19 52 °F /  11.1 °C 46.9 °F /  8.3 °C 29.64in /  1003.6hPa South 5.2mph /  8.4km/h 12mph /  19.3km/h 83% 0.00in /  0mm 58 W/m2
13:24 52 °F /  11.1 °C 47 °F /  8.3 °C 29.64in /  1003.6hPa South 5.3mph /  8.5km/h 11mph /  17.7km/h 83.2% 0.00in /  0mm 54 W/m2
13:29 51.8 °F /  11 °C 47.1 °F /  8.4 °C 29.64in /  1003.6hPa South 4.1mph /  6.6km/h 9mph /  14.5km/h 84% 0.00in /  0mm 51 W/m2
13:34 51.7 °F /  10.9 °C 47 °F /  8.3 °C 29.64in /  1003.6hPa South 3.3mph /  5.3km/h 11mph /  17.7km/h 84% 0.00in /  0mm 58 W/m2
13:39 51.6 °F /  10.9 °C 46.9 °F /  8.3 °C 29.64in /  1003.6hPa South 4.8mph /  7.7km/h 10mph /  16.1km/h 84% 0.00in /  0mm 76 W/m2
13:44 51.6 °F /  10.9 °C 47.2 °F /  8.4 °C 29.64in /  1003.6hPa SSE 6.5mph /  10.5km/h 11mph /  17.7km/h 84.8% 0.00in /  0mm 69 W/m2
13:49 51.6 °F /  10.9 °C 47.3 °F /  8.5 °C 29.64in /  1003.6hPa South 4.9mph /  7.9km/h 13mph /  20.9km/h 85% 0.00in /  0mm 47 W/m2
13:54 51.6 °F /  10.9 °C 47.3 °F /  8.5 °C 29.64in /  1003.6hPa South 5.6mph /  9km/h 15mph /  24.1km/h 85% 0.00in /  0mm 47 W/m2
13:59 51.5 °F /  10.8 °C 47.4 °F /  8.6 °C 29.64in /  1003.6hPa South 6.2mph /  10km/h 13mph /  20.9km/h 85.6% 0.00in /  0mm 46 W/m2
14:04 51.6 °F /  10.9 °C 47.5 °F /  8.6 °C 29.64in /  1003.6hPa SSW 3.7mph /  6km/h 11mph /  17.7km/h 86% 0.00in /  0mm 49 W/m2
14:09 51.6 °F /  10.9 °C 47.5 °F /  8.6 °C 29.64in /  1003.6hPa South 6.5mph /  10.5km/h 14mph /  22.5km/h 86% 0.00in /  0mm 70 W/m2
14:14 51.6 °F /  10.9 °C 47.5 °F /  8.6 °C 29.63in /  1003.3hPa South 8mph /  12.9km/h 16mph /  25.7km/h 86% 0.00in /  0mm 93 W/m2
14:19 51.6 °F /  10.9 °C 47.5 °F /  8.6 °C 29.63in /  1003.3hPa South 4.5mph /  7.2km/h 10mph /  16.1km/h 86% 0.00in /  0mm 69 W/m2
14:24 51.6 °F /  10.9 °C 47.5 °F /  8.6 °C 29.64in /  1003.6hPa SW 5.1mph /  8.2km/h 11mph /  17.7km/h 86% 0.00in /  0mm 51 W/m2
14:29 51.6 °F /  10.9 °C 47.5 °F /  8.6 °C 29.63in /  1003.3hPa SSW 1.7mph /  2.7km/h 10mph /  16.1km/h 86% 0.00in /  0mm 58 W/m2
14:34 51.7 °F /  10.9 °C 47.6 °F /  8.7 °C 29.63in /  1003.3hPa South 3mph /  4.8km/h 8mph /  12.9km/h 86% 0.00in /  0mm 46 W/m2
14:39 51.6 °F /  10.9 °C 47.5 °F /  8.6 °C 29.63in /  1003.3hPa South 4.7mph /  7.6km/h 11mph /  17.7km/h 86% 0.00in /  0mm 46 W/m2
14:44 51.6 °F /  10.9 °C 47.5 °F /  8.6 °C 29.63in /  1003.3hPa SSE 7.6mph /  12.2km/h 13mph /  20.9km/h 86% 0.00in /  0mm 60 W/m2
14:49 51.6 °F /  10.9 °C 47.5 °F /  8.6 °C 29.63in /  1003.3hPa South 4.9mph /  7.9km/h 10mph /  16.1km/h 86% 0.00in /  0mm 62 W/m2
14:54 51.7 °F /  10.9 °C 47.6 °F /  8.7 °C 29.63in /  1003.3hPa SSE 8.1mph /  13km/h 15mph /  24.1km/h 86% 0.00in /  0mm 54 W/m2
14:59 51.6 °F /  10.9 °C 47.5 °F /  8.6 °C 29.63in /  1003.3hPa South 4.7mph /  7.6km/h 15mph /  24.1km/h 86% 0.00in /  0mm 46 W/m2
15:04 51.8 °F /  11 °C 47.7 °F /  8.7 °C 29.63in /  1003.3hPa South 3.7mph /  6km/h 9mph /  14.5km/h 86% 0.00in /  0mm 51 W/m2
15:09 51.8 °F /  11 °C 47.7 °F /  8.7 °C 29.62in /  1002.9hPa SSE 4.9mph /  7.9km/h 12mph /  19.3km/h 86% 0.00in /  0mm 60 W/m2
15:14 51.8 °F /  11 °C 47.7 °F /  8.7 °C 29.62in /  1002.9hPa SSW 4.6mph /  7.4km/h 15mph /  24.1km/h 86% 0.00in /  0mm 70 W/m2
15:19 51.6 °F /  10.9 °C 47.5 °F /  8.6 °C 29.62in /  1002.9hPa South 3.5mph /  5.6km/h 15mph /  24.1km/h 86% 0.00in /  0mm 70 W/m2
15:23 51.7 °F /  10.9 °C 47.6 °F /  8.7 °C 29.62in /  1002.9hPa SW 3.7mph /  6km/h 9mph /  14.5km/h 86% 0.00in /  0mm 56 W/m2
15:29 51.7 °F /  10.9 °C 47.6 °F /  8.7 °C 29.62in /  1002.9hPa South 2.9mph /  4.7km/h 8mph /  12.9km/h 86% 0.00in /  0mm 56 W/m2
15:34 51.8 °F /  11 °C 47.7 °F /  8.7 °C 29.62in /  1002.9hPa South 3.4mph /  5.5km/h 8mph /  12.9km/h 86% 0.00in /  0mm 49 W/m2
15:39 51.7 °F /  10.9 °C 47.6 °F /  8.7 °C 29.62in /  1002.9hPa SSW 6.1mph /  9.8km/h 14mph /  22.5km/h 86% 0.00in /  0mm 44 W/m2
15:44 51.7 °F /  10.9 °C 47.6 °F /  8.7 °C 29.62in /  1002.9hPa SSW 3.9mph /  6.3km/h 10mph /  16.1km/h 86% 0.00in /  0mm 42 W/m2
15:49 51.8 °F /  11 °C 48 °F /  8.9 °C 29.61in /  1002.6hPa South 4.1mph /  6.6km/h 8mph /  12.9km/h 87% 0.00in /  0mm 63 W/m2
15:54 51.8 °F /  11 °C 48 °F /  8.9 °C 29.62in /  1002.9hPa SSE 7.5mph /  12.1km/h 19mph /  30.6km/h 87% 0.00in /  0mm 72 W/m2
15:59 51.8 °F /  11 °C 48 °F /  8.9 °C 29.62in /  1002.9hPa South 6.6mph /  10.6km/h 19mph /  30.6km/h 87% 0.00in /  0mm 51 W/m2
16:04 51.8 °F /  11 °C 48 °F /  8.9 °C 29.62in /  1002.9hPa South 4.8mph /  7.7km/h 12mph /  19.3km/h 86.8% 0.00in /  0mm 51 W/m2
16:09 51.7 °F /  10.9 °C 47.9 °F /  8.8 °C 29.61in /  1002.6hPa South 6mph /  9.7km/h 13mph /  20.9km/h 87% 0.00in /  0mm 56 W/m2
16:14 51.4 °F /  10.8 °C 47.7 °F /  8.7 °C 29.61in /  1002.6hPa South 2.4mph /  3.9km/h 12mph /  19.3km/h 87% 0.00in /  0mm 56 W/m2
16:19 51.2 °F /  10.7 °C 47.5 °F /  8.6 °C 29.61in /  1002.6hPa South 5.3mph /  8.5km/h 11mph /  17.7km/h 87.4% 0.01in /  0.25mm 44 W/m2
16:24 50.9 °F /  10.5 °C 47.5 °F /  8.6 °C 29.62in /  1002.9hPa South 7.7mph /  12.4km/h 14mph /  22.5km/h 88% 0.01in /  0.25mm 49 W/m2
16:29 50.5 °F /  10.3 °C 47.4 °F /  8.6 °C 29.61in /  1002.6hPa SSE 5.4mph /  8.7km/h 11mph /  17.7km/h 88.8% 0.01in /  0.25mm 46 W/m2
16:34 50.4 °F /  10.2 °C 47.3 °F /  8.5 °C 29.61in /  1002.6hPa SSE 6.3mph /  10.1km/h 12mph /  19.3km/h 89% 0.01in /  0.25mm 44 W/m2
16:39 50.4 °F /  10.2 °C 47.4 °F /  8.6 °C 29.61in /  1002.6hPa SSE 7.8mph /  12.6km/h 13mph /  20.9km/h 89.6% 0.01in /  0.25mm 49 W/m2
16:44 50.2 °F /  10.1 °C 47.3 °F /  8.5 °C 29.61in /  1002.6hPa South 3.6mph /  5.8km/h 12mph /  19.3km/h 90% 0.01in /  0.25mm 67 W/m2
16:49 50.2 °F /  10.1 °C 47.3 °F /  8.5 °C 29.61in /  1002.6hPa South 6mph /  9.7km/h 11mph /  17.7km/h 90% 0.01in /  0.25mm 53 W/m2
16:54 50.1 °F /  10.1 °C 47.6 °F /  8.7 °C 29.61in /  1002.6hPa South 6.2mph /  10km/h 13mph /  20.9km/h 91% 0.01in /  0.25mm 69 W/m2
16:59 50 °F /  10 °C 47.5 °F /  8.6 °C 29.61in /  1002.6hPa SSE 5mph /  8km/h 12mph /  19.3km/h 91% 0.01in /  0.25mm 72 W/m2
17:04 50 °F /  10 °C 47.5 °F /  8.6 °C 29.61in /  1002.6hPa SSW 1mph /  1.6km/h 5mph /  8km/h 91% 0.02in /  0.51mm 46 W/m2
17:09 49.9 °F /  9.9 °C 47.4 °F /  8.6 °C 29.61in /  1002.6hPa South 4.3mph /  6.9km/h 9mph /  14.5km/h 91% 0.02in /  0.51mm 42 W/m2
17:14 49.8 °F /  9.9 °C 47.5 °F /  8.6 °C 29.61in /  1002.6hPa South 4.4mph /  7.1km/h 10mph /  16.1km/h 91.6% 0.02in /  0.51mm 46 W/m2
17:19 49.8 °F /  9.9 °C 47.7 °F /  8.7 °C 29.61in /  1002.6hPa SSE 5.8mph /  9.3km/h 10mph /  16.1km/h 92% 0.02in /  0.51mm 44 W/m2
17:24 49.8 °F /  9.9 °C 47.7 °F /  8.7 °C 29.60in /  1002.3hPa South 4mph /  6.4km/h 10mph /  16.1km/h 92% 0.01in /  0.25mm 37 W/m2
17:29 49.8 °F /  9.9 °C 47.7 °F /  8.7 °C 29.60in /  1002.3hPa South 4.5mph /  7.2km/h 10mph /  16.1km/h 92% 0.01in /  0.25mm 30 W/m2
17:34 49.8 °F /  9.9 °C 47.7 °F /  8.7 °C 29.60in /  1002.3hPa South 3.4mph /  5.5km/h 11mph /  17.7km/h 92% 0.01in /  0.25mm 30 W/m2
17:39 49.8 °F /  9.9 °C 47.7 °F /  8.7 °C 29.60in /  1002.3hPa South 3.1mph /  5km/h 9mph /  14.5km/h 92% 0.01in /  0.25mm 28 W/m2
17:44 49.8 °F /  9.9 °C 47.7 °F /  8.7 °C 29.60in /  1002.3hPa SSE 6mph /  9.7km/h 11mph /  17.7km/h 92% 0.01in /  0.25mm 21 W/m2
17:49 49.8 °F /  9.9 °C 47.7 °F /  8.7 °C 29.60in /  1002.3hPa SSE 5.8mph /  9.3km/h 15mph /  24.1km/h 92% 0.01in /  0.25mm 16 W/m2
17:54 49.7 °F /  9.8 °C 47.6 °F /  8.7 °C 29.60in /  1002.3hPa South 6mph /  9.7km/h 11mph /  17.7km/h 92.2% 0.01in /  0.25mm 12 W/m2
17:59 49.6 °F /  9.8 °C 47.7 °F /  8.7 °C 29.60in /  1002.3hPa SSE 7.6mph /  12.2km/h 13mph /  20.9km/h 92.8% 0.01in /  0.25mm 9 W/m2
18:04 49.6 °F /  9.8 °C 47.7 °F /  8.7 °C 29.60in /  1002.3hPa South 4.9mph /  7.9km/h 13mph /  20.9km/h 93% 0.01in /  0.25mm 7 W/m2
18:09 49.6 °F /  9.8 °C 47.7 °F /  8.7 °C 29.60in /  1002.3hPa South 6.7mph /  10.8km/h 17mph /  27.4km/h 93% 0.00in /  0mm 0 W/m2
18:14 49.8 °F /  9.9 °C 47.8 °F /  8.8 °C 29.60in /  1002.3hPa South 5mph /  8km/h 13mph /  20.9km/h 93% 0.00in /  0mm 5 W/m2
18:19 49.8 °F /  9.9 °C 47.8 °F /  8.8 °C 29.60in /  1002.3hPa SSE 5.6mph /  9km/h 13mph /  20.9km/h 93% 0.00in /  0mm 7 W/m2
18:24 49.8 °F /  9.9 °C 47.8 °F /  8.8 °C 29.60in /  1002.3hPa SSE 8.5mph /  13.7km/h 15mph /  24.1km/h 93% 0.00in /  0mm 7 W/m2
18:29 49.8 °F /  9.9 °C 47.8 °F /  8.8 °C 29.59in /  1001.9hPa South 8.8mph /  14.2km/h 17mph /  27.4km/h 93% 0.00in /  0mm 0 W/m2
18:34 49.8 °F /  9.9 °C 47.8 °F /  8.8 °C 29.59in /  1001.9hPa SSE 5.8mph /  9.3km/h 16mph /  25.7km/h 93% 0.00in /  0mm 0 W/m2
18:39 49.8 °F /  9.9 °C 47.8 °F /  8.8 °C 29.59in /  1001.9hPa SSE 5.4mph /  8.7km/h 15mph /  24.1km/h 93% 0.00in /  0mm 0 W/m2
18:44 49.8 °F /  9.9 °C 47.8 °F /  8.8 °C 29.60in /  1002.3hPa SSE 5.1mph /  8.2km/h 14mph /  22.5km/h 93% 0.00in /  0mm 0 W/m2
18:48 49.8 °F /  9.9 °C 47.8 °F /  8.8 °C 29.60in /  1002.3hPa South 4.9mph /  7.9km/h 11mph /  17.7km/h 93% 0.00in /  0mm 0 W/m2
18:54 49.8 °F /  9.9 °C 47.8 °F /  8.8 °C 29.60in /  1002.3hPa SSE 6.6mph /  10.6km/h 11mph /  17.7km/h 93% 0.00in /  0mm 0 W/m2
18:59 49.8 °F /  9.9 °C 47.8 °F /  8.8 °C 29.60in /  1002.3hPa South 5.2mph /  8.4km/h 11mph /  17.7km/h 93% 0.00in /  0mm 0 W/m2
19:04 50 °F /  10 °C 48 °F /  8.9 °C 29.60in /  1002.3hPa South 5.6mph /  9km/h 9mph /  14.5km/h 93% 0.00in /  0mm 0 W/m2
19:09 50.1 °F /  10.1 °C 48.1 °F /  8.9 °C 29.60in /  1002.3hPa SSE 4.7mph /  7.6km/h 11mph /  17.7km/h 93% 0.00in /  0mm 0 W/m2
19:14 50.2 °F /  10.1 °C 48.2 °F /  9 °C 29.60in /  1002.3hPa South 5.8mph /  9.3km/h 12mph /  19.3km/h 93% 0.00in /  0mm 0 W/m2
19:19 50.2 °F /  10.1 °C 48.2 °F /  9 °C 29.60in /  1002.3hPa South 6.6mph /  10.6km/h 14mph /  22.5km/h 93% 0.00in /  0mm 0 W/m2
19:24 50.2 °F /  10.1 °C 48.2 °F /  9 °C 29.60in /  1002.3hPa SSE 6.2mph /  10km/h 12mph /  19.3km/h 93% 0.00in /  0mm 0 W/m2
19:29 50.4 °F /  10.2 °C 48.4 °F /  9.1 °C 29.60in /  1002.3hPa South 4.4mph /  7.1km/h 14mph /  22.5km/h 93% 0.00in /  0mm 0 W/m2
19:34 50.4 °F /  10.2 °C 48.4 °F /  9.1 °C 29.59in /  1001.9hPa South 4.9mph /  7.9km/h 15mph /  24.1km/h 93% 0.00in /  0mm 0 W/m2
19:39 50.4 °F /  10.2 °C 48.4 °F /  9.1 °C 29.59in /  1001.9hPa South 6.1mph /  9.8km/h 14mph /  22.5km/h 93% 0.00in /  0mm 0 W/m2
19:44 50.4 °F /  10.2 °C 48.4 °F /  9.1 °C 29.59in /  1001.9hPa South 6.5mph /  10.5km/h 14mph /  22.5km/h 93% 0.00in /  0mm 0 W/m2
19:49 50.4 °F /  10.2 °C 48.4 °F /  9.1 °C 29.59in /  1001.9hPa SSE 4.9mph /  7.9km/h 14mph /  22.5km/h 93% 0.00in /  0mm 0 W/m2
19:54 50.4 °F /  10.2 °C 48.4 °F /  9.1 °C 29.59in /  1001.9hPa South 5.5mph /  8.9km/h 14mph /  22.5km/h 93% 0.00in /  0mm 0 W/m2
19:59 50.4 °F /  10.2 °C 48.4 °F /  9.1 °C 29.59in /  1001.9hPa South 4.2mph /  6.8km/h 11mph /  17.7km/h 93% 0.00in /  0mm 0 W/m2
20:04 50.4 °F /  10.2 °C 48.4 °F /  9.1 °C 29.60in /  1002.3hPa South 4.1mph /  6.6km/h 8mph /  12.9km/h 93% 0.00in /  0mm 0 W/m2
20:09 50.4 °F /  10.2 °C 48.4 °F /  9.1 °C 29.60in /  1002.3hPa South 4.1mph /  6.6km/h 10mph /  16.1km/h 93% 0.00in /  0mm 0 W/m2
20:14 50.3 °F /  10.2 °C 48.3 °F /  9.1 °C 29.60in /  1002.3hPa South 3.1mph /  5km/h 9mph /  14.5km/h 93% 0.00in /  0mm 0 W/m2
20:19 50.2 °F /  10.1 °C 48.2 °F /  9 °C 29.60in /  1002.3hPa South 5mph /  8km/h 9mph /  14.5km/h 93% 0.00in /  0mm 0 W/m2
20:24 50.3 °F /  10.2 °C 48.3 °F /  9.1 °C 29.60in /  1002.3hPa South 4.5mph /  7.2km/h 9mph /  14.5km/h 93% 0.00in /  0mm 0 W/m2
20:29 50.3 °F /  10.2 °C 48.3 °F /  9.1 °C 29.60in /  1002.3hPa SSW 2.6mph /  4.2km/h 6mph /  9.7km/h 93% 0.00in /  0mm 0 W/m2
20:34 50.2 °F /  10.1 °C 48.2 °F /  9 °C 29.59in /  1001.9hPa South 3.7mph /  6km/h 6mph /  9.7km/h 93% 0.01in /  0.25mm 0 W/m2
20:39 50.2 °F /  10.1 °C 48.2 °F /  9 °C 29.59in /  1001.9hPa SSW 2.8mph /  4.5km/h 5mph /  8km/h 93% 0.01in /  0.25mm 0 W/m2
20:44 50.2 °F /  10.1 °C 48.2 °F /  9 °C 29.59in /  1001.9hPa South 2.5mph /  4km/h 5mph /  8km/h 93% 0.01in /  0.25mm 0 W/m2
20:49 50.3 °F /  10.2 °C 48.3 °F /  9.1 °C 29.59in /  1001.9hPa South 3.2mph /  5.1km/h 7mph /  11.3km/h 93.3% 0.01in /  0.25mm 0 W/m2
20:54 50.3 °F /  10.2 °C 48.7 °F /  9.3 °C 29.59in /  1001.9hPa SSW 3.4mph /  5.5km/h 6mph /  9.7km/h 94% 0.01in /  0.25mm 0 W/m2
20:59 50.4 °F /  10.2 °C 48.7 °F /  9.3 °C 29.59in /  1001.9hPa SSW 1.9mph /  3.1km/h 6mph /  9.7km/h 94% 0.01in /  0.25mm 0 W/m2
21:04 50.4 °F /  10.2 °C 48.7 °F /  9.3 °C 29.59in /  1001.9hPa South 4mph /  6.4km/h 6mph /  9.7km/h 94% 0.01in /  0.25mm 0 W/m2
21:09 50.4 °F /  10.2 °C 48.7 °F /  9.3 °C 29.59in /  1001.9hPa South 2.8mph /  4.5km/h 6mph /  9.7km/h 94% 0.01in /  0.25mm 0 W/m2
21:14 50.5 °F /  10.3 °C 48.8 °F /  9.3 °C 29.59in /  1001.9hPa SSW 2.6mph /  4.2km/h 6mph /  9.7km/h 94% 0.01in /  0.25mm 0 W/m2
21:19 50.5 °F /  10.3 °C 48.9 °F /  9.4 °C 29.60in /  1002.3hPa SSW 2.3mph /  3.7km/h 7mph /  11.3km/h 94% 0.01in /  0.25mm 0 W/m2
21:24 50.5 °F /  10.3 °C 48.9 °F /  9.4 °C 29.60in /  1002.3hPa South 2.2mph /  3.5km/h 7mph /  11.3km/h 94% 0.01in /  0.25mm 0 W/m2
21:29 50.7 °F /  10.4 °C 49.1 °F /  9.5 °C 29.60in /  1002.3hPa SSW 2.1mph /  3.4km/h 6mph /  9.7km/h 94% 0.01in /  0.25mm 0 W/m2
21:34 50.7 °F /  10.4 °C 49.1 °F /  9.5 °C 29.60in /  1002.3hPa SSW 3.2mph /  5.1km/h 5mph /  8km/h 94% 0.01in /  0.25mm 0 W/m2
21:39 50.7 °F /  10.4 °C 49.1 °F /  9.5 °C 29.60in /  1002.3hPa SSW 4.5mph /  7.2km/h 7mph /  11.3km/h 94% 0.00in /  0mm 0 W/m2
21:44 50.8 °F /  10.4 °C 49.2 °F /  9.6 °C 29.60in /  1002.3hPa South 2.5mph /  4km/h 7mph /  11.3km/h 94% 0.00in /  0mm 0 W/m2
21:49 50.8 °F /  10.4 °C 49.2 °F /  9.6 °C 29.60in /  1002.3hPa SSW 3.4mph /  5.5km/h 7mph /  11.3km/h 94% 0.00in /  0mm 0 W/m2
21:54 50.8 °F /  10.4 °C 49.2 °F /  9.6 °C 29.60in /  1002.3hPa SSW 2mph /  3.2km/h 7mph /  11.3km/h 94% 0.00in /  0mm 0 W/m2
21:59 50.8 °F /  10.4 °C 49.2 °F /  9.6 °C 29.60in /  1002.3hPa SSW 3.7mph /  6km/h 10mph /  16.1km/h 94% 0.00in /  0mm 0 W/m2
22:04 50.9 °F /  10.5 °C 49.3 °F /  9.6 °C 29.61in /  1002.6hPa SW 3.7mph /  6km/h 10mph /  16.1km/h 94% 0.00in /  0mm 0 W/m2
22:09 50.9 °F /  10.5 °C 49.3 °F /  9.6 °C 29.61in /  1002.6hPa SSW 4.1mph /  6.6km/h 10mph /  16.1km/h 94% 0.00in /  0mm 0 W/m2
22:14 50.9 °F /  10.5 °C 49.3 °F /  9.6 °C 29.61in /  1002.6hPa SSW 2.8mph /  4.5km/h 6mph /  9.7km/h 94% 0.00in /  0mm 0 W/m2
22:19 50.9 °F /  10.5 °C 49.3 °F /  9.6 °C 29.61in /  1002.6hPa SSW 2.1mph /  3.4km/h 6mph /  9.7km/h 94% 0.00in /  0mm 0 W/m2
22:24 50.9 °F /  10.5 °C 49.3 °F /  9.6 °C 29.61in /  1002.6hPa SW 1.7mph /  2.7km/h 5mph /  8km/h 94% 0.00in /  0mm 0 W/m2
22:29 50.9 °F /  10.5 °C 49.3 °F /  9.6 °C 29.61in /  1002.6hPa SW 2.6mph /  4.2km/h 6mph /  9.7km/h 94% 0.00in /  0mm 0 W/m2
22:34 51 °F /  10.6 °C 49.4 °F /  9.7 °C 29.61in /  1002.6hPa SW 3mph /  4.8km/h 9mph /  14.5km/h 94% 0.00in /  0mm 0 W/m2
22:39 51.1 °F /  10.6 °C 49.5 °F /  9.7 °C 29.61in /  1002.6hPa WSW 2.9mph /  4.7km/h 7mph /  11.3km/h 94% 0.00in /  0mm 0 W/m2
22:44 51.1 °F /  10.6 °C 49.5 °F /  9.7 °C 29.61in /  1002.6hPa WSW 2.2mph /  3.5km/h 5mph /  8km/h 94% 0.00in /  0mm 0 W/m2
22:49 51.1 °F /  10.6 °C 49.5 °F /  9.7 °C 29.61in /  1002.6hPa SW 2mph /  3.2km/h 4mph /  6.4km/h 94% 0.00in /  0mm 0 W/m2
22:54 51 °F /  10.6 °C 49.4 °F /  9.7 °C 29.61in /  1002.6hPa West 2mph /  3.2km/h 7mph /  11.3km/h 94% 0.00in /  0mm 0 W/m2
22:59 50.9 °F /  10.5 °C 49.3 °F /  9.6 °C 29.61in /  1002.6hPa WSW 2.4mph /  3.9km/h 7mph /  11.3km/h 94% 0.00in /  0mm 0 W/m2
23:04 50.9 °F /  10.5 °C 49.3 °F /  9.6 °C 29.61in /  1002.6hPa WSW 1.7mph /  2.7km/h 7mph /  11.3km/h 94% 0.00in /  0mm 0 W/m2
23:09 50.9 °F /  10.5 °C 49.3 °F /  9.6 °C 29.61in /  1002.6hPa WSW 1.3mph /  2.1km/h 5mph /  8km/h 94% 0.00in /  0mm 0 W/m2
23:14 50.9 °F /  10.5 °C 49.3 °F /  9.6 °C 29.62in /  1002.9hPa WSW 1.9mph /  3.1km/h 3mph /  4.8km/h 94% 0.00in /  0mm 0 W/m2
23:19 50.9 °F /  10.5 °C 49.3 °F /  9.6 °C 29.62in /  1002.9hPa WSW 0.6mph /  1km/h 3mph /  4.8km/h 94% 0.00in /  0mm 0 W/m2
23:24 50.8 °F /  10.4 °C 49.2 °F /  9.6 °C 29.62in /  1002.9hPa WSW 1.6mph /  2.6km/h 4mph /  6.4km/h 94% 0.00in /  0mm 0 W/m2
23:29 50.7 °F /  10.4 °C 49.1 °F /  9.5 °C 29.62in /  1002.9hPa WSW 0.6mph /  1km/h 4mph /  6.4km/h 94% 0.00in /  0mm 0 W/m2
23:34 50.7 °F /  10.4 °C 49.1 °F /  9.5 °C 29.62in /  1002.9hPa NW 2.4mph /  3.9km/h 6mph /  9.7km/h 94% 0.00in /  0mm 0 W/m2
23:39 50.7 °F /  10.4 °C 49.1 °F /  9.5 °C 29.62in /  1002.9hPa NW 0.4mph /  0.6km/h 3mph /  4.8km/h 94% 0.00in /  0mm 0 W/m2
23:44 50.7 °F /  10.4 °C 49.1 °F /  9.5 °C 29.62in /  1002.9hPa WNW 1mph /  1.6km/h 3mph /  4.8km/h 94% 0.00in /  0mm 0 W/m2
23:49 50.7 °F /  10.4 °C 49.1 °F /  9.5 °C 29.62in /  1002.9hPa South 2.6mph /  4.2km/h 7mph /  11.3km/h 94% 0.00in /  0mm 0 W/m2
23:54 50.6 °F /  10.3 °C 49 °F /  9.4 °C 29.62in /  1002.9hPa SSW 2.2mph /  3.5km/h 6mph /  9.7km/h 94% 0.00in /  0mm 0 W/m2
23:59 50.5 °F /  10.3 °C 48.9 °F /  9.4 °C 29.62in /  1002.9hPa SW 3.3mph /  5.3km/h 8mph /  12.9km/h 94% 0.00in /  0mm 0 W/m2
Bath Spa Weather
Compliments of Weather Underground - 2 mb